sensor_id;sensor_type;location;lat;lon;timestamp;temperature;humidity
39925;DHT22;25592;49.986;11.618;2023-07-13T00:02:07;25.70;68.80
39925;DHT22;25592;49.986;11.618;2023-07-13T00:04:53;25.60;68.70
39925;DHT22;25592;49.986;11.618;2023-07-13T00:07:39;25.60;68.90
39925;DHT22;25592;49.986;11.618;2023-07-13T00:10:24;25.60;69.00
39925;DHT22;25592;49.986;11.618;2023-07-13T00:13:10;25.60;69.50
39925;DHT22;25592;49.986;11.618;2023-07-13T00:15:58;25.50;68.50
39925;DHT22;25592;49.986;11.618;2023-07-13T00:18:43;25.40;68.50
39925;DHT22;25592;49.986;11.618;2023-07-13T00:21:29;25.40;68.70
39925;DHT22;25592;49.986;11.618;2023-07-13T00:24:16;25.40;68.90
39925;DHT22;25592;49.986;11.618;2023-07-13T00:27:11;25.40;69.50
39925;DHT22;25592;49.986;11.618;2023-07-13T00:29:56;25.40;68.90
39925;DHT22;25592;49.986;11.618;2023-07-13T00:32:41;25.40;68.60
39925;DHT22;25592;49.986;11.618;2023-07-13T00:35:27;25.30;68.40
39925;DHT22;25592;49.986;11.618;2023-07-13T00:38:15;25.40;68.60
39925;DHT22;25592;49.986;11.618;2023-07-13T00:41:01;25.40;68.90
39925;DHT22;25592;49.986;11.618;2023-07-13T00:43:48;25.30;68.90
39925;DHT22;25592;49.986;11.618;2023-07-13T00:46:34;25.40;68.80
39925;DHT22;25592;49.986;11.618;2023-07-13T00:49:22;25.30;68.00
39925;DHT22;25592;49.986;11.618;2023-07-13T00:52:09;25.20;68.10
39925;DHT22;25592;49.986;11.618;2023-07-13T00:54:55;25.20;68.30
39925;DHT22;25592;49.986;11.618;2023-07-13T00:57:41;25.40;68.70
39925;DHT22;25592;49.986;11.618;2023-07-13T01:00:29;25.40;69.10
39925;DHT22;25592;49.986;11.618;2023-07-13T01:03:15;25.40;69.40
39925;DHT22;25592;49.986;11.618;2023-07-13T01:06:00;25.30;69.90
39925;DHT22;25592;49.986;11.618;2023-07-13T01:08:46;25.30;70.10
39925;DHT22;25592;49.986;11.618;2023-07-13T01:11:32;25.20;71.00
39925;DHT22;25592;49.986;11.618;2023-07-13T01:14:17;25.10;70.60
39925;DHT22;25592;49.986;11.618;2023-07-13T01:17:03;25.00;70.40
39925;DHT22;25592;49.986;11.618;2023-07-13T01:19:48;25.10;70.40
39925;DHT22;25592;49.986;11.618;2023-07-13T01:22:33;25.10;70.40
39925;DHT22;25592;49.986;11.618;2023-07-13T01:25:20;25.00;70.50
39925;DHT22;25592;49.986;11.618;2023-07-13T01:28:07;25.00;70.90
39925;DHT22;25592;49.986;11.618;2023-07-13T01:30:55;24.90;71.30
39925;DHT22;25592;49.986;11.618;2023-07-13T01:33:41;24.70;70.80
39925;DHT22;25592;49.986;11.618;2023-07-13T01:36:26;24.70;71.10
39925;DHT22;25592;49.986;11.618;2023-07-13T01:39:12;24.80;71.60
39925;DHT22;25592;49.986;11.618;2023-07-13T01:41:57;24.70;70.60
39925;DHT22;25592;49.986;11.618;2023-07-13T01:44:42;24.70;71.30
39925;DHT22;25592;49.986;11.618;2023-07-13T01:47:28;24.50;72.30
39925;DHT22;25592;49.986;11.618;2023-07-13T01:50:14;24.50;71.80
39925;DHT22;25592;49.986;11.618;2023-07-13T01:52:59;24.40;71.80
39925;DHT22;25592;49.986;11.618;2023-07-13T01:55:45;24.30;72.00
39925;DHT22;25592;49.986;11.618;2023-07-13T01:58:30;24.20;72.20
39925;DHT22;25592;49.986;11.618;2023-07-13T02:01:16;24.10;72.20
39925;DHT22;25592;49.986;11.618;2023-07-13T02:04:02;24.10;72.20
39925;DHT22;25592;49.986;11.618;2023-07-13T02:06:48;24.10;72.30
39925;DHT22;25592;49.986;11.618;2023-07-13T02:09:33;24.10;72.50
39925;DHT22;25592;49.986;11.618;2023-07-13T02:12:18;24.10;72.50
39925;DHT22;25592;49.986;11.618;2023-07-13T02:15:04;24.10;72.50
39925;DHT22;25592;49.986;11.618;2023-07-13T02:17:50;24.00;72.80
39925;DHT22;25592;49.986;11.618;2023-07-13T02:20:35;24.00;73.00
39925;DHT22;25592;49.986;11.618;2023-07-13T02:23:20;24.00;72.70
39925;DHT22;25592;49.986;11.618;2023-07-13T02:26:06;24.00;73.00
39925;DHT22;25592;49.986;11.618;2023-07-13T02:28:51;24.00;73.40
39925;DHT22;25592;49.986;11.618;2023-07-13T02:31:37;24.00;73.20
39925;DHT22;25592;49.986;11.618;2023-07-13T02:34:22;24.00;73.00
39925;DHT22;25592;49.986;11.618;2023-07-13T02:37:08;24.00;73.00
39925;DHT22;25592;49.986;11.618;2023-07-13T02:39:53;23.90;72.80
39925;DHT22;25592;49.986;11.618;2023-07-13T02:42:39;23.80;73.00
39925;DHT22;25592;49.986;11.618;2023-07-13T02:45:24;23.80;72.70
39925;DHT22;25592;49.986;11.618;2023-07-13T02:48:09;23.80;72.90
39925;DHT22;25592;49.986;11.618;2023-07-13T02:50:55;23.80;72.70
39925;DHT22;25592;49.986;11.618;2023-07-13T02:53:40;23.80;72.80
39925;DHT22;25592;49.986;11.618;2023-07-13T02:56:27;23.70;72.80
39925;DHT22;25592;49.986;11.618;2023-07-13T02:59:13;23.70;73.30
39925;DHT22;25592;49.986;11.618;2023-07-13T03:02:00;23.60;73.20
39925;DHT22;25592;49.986;11.618;2023-07-13T03:04:45;23.60;73.30
39925;DHT22;25592;49.986;11.618;2023-07-13T03:07:30;23.60;73.20
39925;DHT22;25592;49.986;11.618;2023-07-13T03:10:16;23.50;73.30
39925;DHT22;25592;49.986;11.618;2023-07-13T03:13:02;23.50;73.20
39925;DHT22;25592;49.986;11.618;2023-07-13T03:15:48;23.50;73.20
39925;DHT22;25592;49.986;11.618;2023-07-13T03:18:34;23.40;73.70
39925;DHT22;25592;49.986;11.618;2023-07-13T03:21:21;23.30;74.00
39925;DHT22;25592;49.986;11.618;2023-07-13T03:24:06;23.30;73.70
39925;DHT22;25592;49.986;11.618;2023-07-13T03:26:52;23.40;73.60
39925;DHT22;25592;49.986;11.618;2023-07-13T03:29:37;23.40;73.40
39925;DHT22;25592;49.986;11.618;2023-07-13T03:32:22;23.40;73.40
39925;DHT22;25592;49.986;11.618;2023-07-13T03:35:09;23.50;73.40
39925;DHT22;25592;49.986;11.618;2023-07-13T03:37:55;23.30;73.50
39925;DHT22;25592;49.986;11.618;2023-07-13T03:40:40;23.30;73.80
39925;DHT22;25592;49.986;11.618;2023-07-13T03:43:25;23.20;74.20
39925;DHT22;25592;49.986;11.618;2023-07-13T03:46:11;23.20;74.30
39925;DHT22;25592;49.986;11.618;2023-07-13T03:48:57;23.20;74.20
39925;DHT22;25592;49.986;11.618;2023-07-13T03:51:42;23.30;74.40
39925;DHT22;25592;49.986;11.618;2023-07-13T03:54:28;23.20;73.90
39925;DHT22;25592;49.986;11.618;2023-07-13T03:57:13;23.30;74.00
39925;DHT22;25592;49.986;11.618;2023-07-13T03:59:58;23.20;74.20
39925;DHT22;25592;49.986;11.618;2023-07-13T04:02:44;23.10;74.60
39925;DHT22;25592;49.986;11.618;2023-07-13T04:05:30;23.00;75.00
39925;DHT22;25592;49.986;11.618;2023-07-13T04:08:16;22.90;75.30
39925;DHT22;25592;49.986;11.618;2023-07-13T04:11:03;22.90;75.40
39925;DHT22;25592;49.986;11.618;2023-07-13T04:13:49;22.90;75.50
39925;DHT22;25592;49.986;11.618;2023-07-13T04:16:34;22.90;75.50
39925;DHT22;25592;49.986;11.618;2023-07-13T04:19:20;22.80;75.80
39925;DHT22;25592;49.986;11.618;2023-07-13T04:22:06;22.80;76.00
39925;DHT22;25592;49.986;11.618;2023-07-13T04:24:51;22.70;75.40
39925;DHT22;25592;49.986;11.618;2023-07-13T04:27:36;22.70;74.90
39925;DHT22;25592;49.986;11.618;2023-07-13T04:30:22;22.50;74.70
39925;DHT22;25592;49.986;11.618;2023-07-13T04:33:07;22.40;74.40
39925;DHT22;25592;49.986;11.618;2023-07-13T04:35:54;22.40;74.90
39925;DHT22;25592;49.986;11.618;2023-07-13T04:38:43;22.50;74.80
39925;DHT22;25592;49.986;11.618;2023-07-13T04:41:28;22.50;75.10
39925;DHT22;25592;49.986;11.618;2023-07-13T04:44:14;22.50;75.20
39925;DHT22;25592;49.986;11.618;2023-07-13T04:46:59;22.50;75.70
39925;DHT22;25592;49.986;11.618;2023-07-13T04:49:45;22.50;75.70
39925;DHT22;25592;49.986;11.618;2023-07-13T04:52:30;22.60;76.00
39925;DHT22;25592;49.986;11.618;2023-07-13T04:55:16;22.60;76.00
39925;DHT22;25592;49.986;11.618;2023-07-13T04:58:01;22.70;75.80
39925;DHT22;25592;49.986;11.618;2023-07-13T05:00:47;22.70;77.40
39925;DHT22;25592;49.986;11.618;2023-07-13T05:03:33;22.80;77.80
39925;DHT22;25592;49.986;11.618;2023-07-13T05:06:19;22.90;76.30
39925;DHT22;25592;49.986;11.618;2023-07-13T05:09:04;23.10;75.50
39925;DHT22;25592;49.986;11.618;2023-07-13T05:11:50;23.20;75.90
39925;DHT22;25592;49.986;11.618;2023-07-13T05:14:36;23.30;76.10
39925;DHT22;25592;49.986;11.618;2023-07-13T05:17:22;23.30;76.30
39925;DHT22;25592;49.986;11.618;2023-07-13T05:20:08;23.40;76.10
39925;DHT22;25592;49.986;11.618;2023-07-13T05:22:54;23.50;75.70
39925;DHT22;25592;49.986;11.618;2023-07-13T05:25:39;23.60;75.60
39925;DHT22;25592;49.986;11.618;2023-07-13T05:28:26;23.60;75.20
39925;DHT22;25592;49.986;11.618;2023-07-13T05:31:13;23.70;74.70
39925;DHT22;25592;49.986;11.618;2023-07-13T05:33:59;23.80;74.30
39925;DHT22;25592;49.986;11.618;2023-07-13T05:36:44;23.80;74.30
39925;DHT22;25592;49.986;11.618;2023-07-13T05:39:30;23.80;74.40
39925;DHT22;25592;49.986;11.618;2023-07-13T05:42:15;23.80;74.30
39925;DHT22;25592;49.986;11.618;2023-07-13T05:45:01;23.70;74.50
39925;DHT22;25592;49.986;11.618;2023-07-13T05:47:48;23.80;74.60
39925;DHT22;25592;49.986;11.618;2023-07-13T05:50:35;23.80;74.80
39925;DHT22;25592;49.986;11.618;2023-07-13T05:53:20;23.80;73.70
39925;DHT22;25592;49.986;11.618;2023-07-13T05:56:06;23.70;73.70
39925;DHT22;25592;49.986;11.618;2023-07-13T05:58:51;23.70;71.70
39925;DHT22;25592;49.986;11.618;2023-07-13T06:01:36;23.30;72.50
39925;DHT22;25592;49.986;11.618;2023-07-13T06:04:22;23.30;72.80
39925;DHT22;25592;49.986;11.618;2023-07-13T06:07:07;23.20;72.40
39925;DHT22;25592;49.986;11.618;2023-07-13T06:09:53;23.30;72.70
39925;DHT22;25592;49.986;11.618;2023-07-13T06:12:38;23.50;72.00
39925;DHT22;25592;49.986;11.618;2023-07-13T06:15:24;23.60;71.90
39925;DHT22;25592;49.986;11.618;2023-07-13T06:18:09;23.60;72.00
39925;DHT22;25592;49.986;11.618;2023-07-13T06:20:54;23.60;71.40
39925;DHT22;25592;49.986;11.618;2023-07-13T06:23:40;23.80;71.40
39925;DHT22;25592;49.986;11.618;2023-07-13T06:26:25;23.80;71.70
39925;DHT22;25592;49.986;11.618;2023-07-13T06:29:11;23.80;71.70
39925;DHT22;25592;49.986;11.618;2023-07-13T06:31:56;23.70;71.20
39925;DHT22;25592;49.986;11.618;2023-07-13T06:34:42;23.70;71.60
39925;DHT22;25592;49.986;11.618;2023-07-13T06:37:27;23.40;72.00
39925;DHT22;25592;49.986;11.618;2023-07-13T06:40:13;23.30;72.60
39925;DHT22;25592;49.986;11.618;2023-07-13T06:42:58;23.60;72.40
39925;DHT22;25592;49.986;11.618;2023-07-13T06:45:46;23.80;72.40
39925;DHT22;25592;49.986;11.618;2023-07-13T06:48:32;23.90;71.80
39925;DHT22;25592;49.986;11.618;2023-07-13T06:51:17;24.00;71.00
39925;DHT22;25592;49.986;11.618;2023-07-13T06:54:03;24.00;71.10
39925;DHT22;25592;49.986;11.618;2023-07-13T06:56:48;24.10;70.90
39925;DHT22;25592;49.986;11.618;2023-07-13T06:59:34;24.30;70.40
39925;DHT22;25592;49.986;11.618;2023-07-13T07:02:19;24.00;70.30
39925;DHT22;25592;49.986;11.618;2023-07-13T07:05:05;23.60;70.70
39925;DHT22;25592;49.986;11.618;2023-07-13T07:07:52;23.50;71.00
39925;DHT22;25592;49.986;11.618;2023-07-13T07:10:37;23.70;71.10
39925;DHT22;25592;49.986;11.618;2023-07-13T07:13:23;23.80;70.20
39925;DHT22;25592;49.986;11.618;2023-07-13T07:16:08;23.80;70.20
39925;DHT22;25592;49.986;11.618;2023-07-13T07:18:54;23.90;69.70
39925;DHT22;25592;49.986;11.618;2023-07-13T07:21:39;24.00;69.70
39925;DHT22;25592;49.986;11.618;2023-07-13T07:24:25;24.10;68.20
39925;DHT22;25592;49.986;11.618;2023-07-13T07:27:10;24.00;67.80
39925;DHT22;25592;49.986;11.618;2023-07-13T07:29:59;24.10;67.20
39925;DHT22;25592;49.986;11.618;2023-07-13T07:32:48;24.00;66.90
39925;DHT22;25592;49.986;11.618;2023-07-13T07:35:36;24.00;66.90
39925;DHT22;25592;49.986;11.618;2023-07-13T07:38:42;23.90;66.80
39925;DHT22;25592;49.986;11.618;2023-07-13T07:41:27;24.10;67.40
39925;DHT22;25592;49.986;11.618;2023-07-13T07:44:15;24.10;65.40
39925;DHT22;25592;49.986;11.618;2023-07-13T07:47:01;24.30;66.40
39925;DHT22;25592;49.986;11.618;2023-07-13T07:49:46;24.30;66.40
39925;DHT22;25592;49.986;11.618;2023-07-13T07:52:31;24.50;65.40
39925;DHT22;25592;49.986;11.618;2023-07-13T07:55:17;24.60;64.70
39925;DHT22;25592;49.986;11.618;2023-07-13T07:58:05;24.60;64.60
39925;DHT22;25592;49.986;11.618;2023-07-13T08:01:11;24.70;64.60
39925;DHT22;25592;49.986;11.618;2023-07-13T08:03:59;24.70;63.20
39925;DHT22;25592;49.986;11.618;2023-07-13T08:06:47;24.50;63.50
39925;DHT22;25592;49.986;11.618;2023-07-13T08:09:32;24.50;63.30
39925;DHT22;25592;49.986;11.618;2023-07-13T08:12:18;24.60;63.40
39925;DHT22;25592;49.986;11.618;2023-07-13T08:15:23;24.80;62.90
39925;DHT22;25592;49.986;11.618;2023-07-13T08:18:09;24.80;62.70
39925;DHT22;25592;49.986;11.618;2023-07-13T08:20:54;24.80;62.40
39925;DHT22;25592;49.986;11.618;2023-07-13T08:23:43;24.80;62.40
39925;DHT22;25592;49.986;11.618;2023-07-13T08:26:29;24.60;62.00
39925;DHT22;25592;49.986;11.618;2023-07-13T08:29:14;24.50;62.60
39925;DHT22;25592;49.986;11.618;2023-07-13T08:32:00;24.20;61.80
39925;DHT22;25592;49.986;11.618;2023-07-13T08:34:46;24.10;62.30
39925;DHT22;25592;49.986;11.618;2023-07-13T08:37:31;24.00;63.00
39925;DHT22;25592;49.986;11.618;2023-07-13T08:40:17;24.30;63.60
39925;DHT22;25592;49.986;11.618;2023-07-13T08:43:09;24.40;62.80
39925;DHT22;25592;49.986;11.618;2023-07-13T08:46:13;24.50;63.40
39925;DHT22;25592;49.986;11.618;2023-07-13T08:49:05;24.40;62.80
39925;DHT22;25592;49.986;11.618;2023-07-13T08:51:59;24.60;63.10
39925;DHT22;25592;49.986;11.618;2023-07-13T08:54:49;24.50;63.10
39925;DHT22;25592;49.986;11.618;2023-07-13T08:57:37;24.20;62.20
39925;DHT22;25592;49.986;11.618;2023-07-13T09:00:34;24.20;62.80
39925;DHT22;25592;49.986;11.618;2023-07-13T09:03:26;24.50;62.80
39925;DHT22;25592;49.986;11.618;2023-07-13T09:06:14;24.50;62.30
39925;DHT22;25592;49.986;11.618;2023-07-13T09:09:20;24.80;62.50
39925;DHT22;25592;49.986;11.618;2023-07-13T09:12:18;25.00;61.10
39925;DHT22;25592;49.986;11.618;2023-07-13T09:15:21;24.50;60.80
39925;DHT22;25592;49.986;11.618;2023-07-13T09:21:22;24.30;60.30
39925;DHT22;25592;49.986;11.618;2023-07-13T09:24:26;24.50;58.90
39925;DHT22;25592;49.986;11.618;2023-07-13T09:27:17;24.60;58.10
39925;DHT22;25592;49.986;11.618;2023-07-13T09:30:30;25.00;57.90
39925;DHT22;25592;49.986;11.618;2023-07-13T09:33:17;25.40;58.70
39925;DHT22;25592;49.986;11.618;2023-07-13T09:36:23;25.20;57.50
39925;DHT22;25592;49.986;11.618;2023-07-13T09:45:01;25.50;57.40
39925;DHT22;25592;49.986;11.618;2023-07-13T09:48:12;25.90;58.00
39925;DHT22;25592;49.986;11.618;2023-07-13T09:51:06;26.20;57.20
39925;DHT22;25592;49.986;11.618;2023-07-13T09:53:53;25.90;56.00
39925;DHT22;25592;49.986;11.618;2023-07-13T09:56:39;25.70;55.00
39925;DHT22;25592;49.986;11.618;2023-07-13T09:59:33;25.60;55.00
39925;DHT22;25592;49.986;11.618;2023-07-13T10:02:34;25.80;55.80
39925;DHT22;25592;49.986;11.618;2023-07-13T10:05:20;26.40;55.10
39925;DHT22;25592;49.986;11.618;2023-07-13T10:08:17;26.50;54.40
39925;DHT22;25592;49.986;11.618;2023-07-13T10:14:02;26.60;51.90
39925;DHT22;25592;49.986;11.618;2023-07-13T10:16:49;26.20;52.20
39925;DHT22;25592;49.986;11.618;2023-07-13T10:19:38;26.00;51.80
39925;DHT22;25592;49.986;11.618;2023-07-13T10:22:29;26.30;52.20
39925;DHT22;25592;49.986;11.618;2023-07-13T10:25:23;26.50;52.50
39925;DHT22;25592;49.986;11.618;2023-07-13T10:28:25;26.90;52.40
39925;DHT22;25592;49.986;11.618;2023-07-13T10:31:13;27.30;52.70
39925;DHT22;25592;49.986;11.618;2023-07-13T10:34:00;27.80;52.40
39925;DHT22;25592;49.986;11.618;2023-07-13T10:36:47;27.80;51.70
39925;DHT22;25592;49.986;11.618;2023-07-13T10:39:34;27.40;50.80
39925;DHT22;25592;49.986;11.618;2023-07-13T10:42:30;27.30;50.70
39925;DHT22;25592;49.986;11.618;2023-07-13T10:45:22;27.50;50.70
39925;DHT22;25592;49.986;11.618;2023-07-13T10:48:12;27.60;50.20
39925;DHT22;25592;49.986;11.618;2023-07-13T10:51:01;27.90;50.60
39925;DHT22;25592;49.986;11.618;2023-07-13T10:54:21;27.80;49.30
39925;DHT22;25592;49.986;11.618;2023-07-13T10:57:18;27.60;48.80
39925;DHT22;25592;49.986;11.618;2023-07-13T11:00:16;27.40;49.40
39925;DHT22;25592;49.986;11.618;2023-07-13T11:03:03;27.60;49.00
39925;DHT22;25592;49.986;11.618;2023-07-13T11:05:51;27.80;48.60
39925;DHT22;25592;49.986;11.618;2023-07-13T11:08:55;28.10;49.20
39925;DHT22;25592;49.986;11.618;2023-07-13T11:11:41;28.60;49.50
39925;DHT22;25592;49.986;11.618;2023-07-13T11:14:30;28.60;48.60
39925;DHT22;25592;49.986;11.618;2023-07-13T11:17:38;28.60;48.20
39925;DHT22;25592;49.986;11.618;2023-07-13T11:20:37;28.40;48.10
39925;DHT22;25592;49.986;11.618;2023-07-13T11:23:29;27.90;47.30
39925;DHT22;25592;49.986;11.618;2023-07-13T11:26:42;27.80;46.80
39925;DHT22;25592;49.986;11.618;2023-07-13T11:29:38;27.80;47.30
39925;DHT22;25592;49.986;11.618;2023-07-13T11:32:29;28.10;48.00
39925;DHT22;25592;49.986;11.618;2023-07-13T11:35:23;28.30;47.50
39925;DHT22;25592;49.986;11.618;2023-07-13T11:38:17;28.20;47.60
39925;DHT22;25592;49.986;11.618;2023-07-13T11:44:11;28.90;47.90
39925;DHT22;25592;49.986;11.618;2023-07-13T11:47:00;29.60;47.50
39925;DHT22;25592;49.986;11.618;2023-07-13T11:49:56;29.50;47.40
39925;DHT22;25592;49.986;11.618;2023-07-13T11:52:41;29.50;46.10
39925;DHT22;25592;49.986;11.618;2023-07-13T11:55:28;29.80;46.10
39925;DHT22;25592;49.986;11.618;2023-07-13T11:58:19;29.70;46.70
39925;DHT22;25592;49.986;11.618;2023-07-13T12:01:06;29.60;46.90
39925;DHT22;25592;49.986;11.618;2023-07-13T12:03:52;29.50;47.10
39925;DHT22;25592;49.986;11.618;2023-07-13T12:06:38;29.50;46.50
39925;DHT22;25592;49.986;11.618;2023-07-13T12:09:27;29.30;47.30
39925;DHT22;25592;49.986;11.618;2023-07-13T12:12:19;29.30;47.20
39925;DHT22;25592;49.986;11.618;2023-07-13T12:15:08;29.10;46.70
39925;DHT22;25592;49.986;11.618;2023-07-13T12:17:53;28.90;46.50
39925;DHT22;25592;49.986;11.618;2023-07-13T12:20:41;29.10;45.90
39925;DHT22;25592;49.986;11.618;2023-07-13T12:23:31;28.90;46.50
39925;DHT22;25592;49.986;11.618;2023-07-13T12:26:18;29.30;46.20
39925;DHT22;25592;49.986;11.618;2023-07-13T12:29:05;29.50;46.30
39925;DHT22;25592;49.986;11.618;2023-07-13T12:31:51;29.10;46.20
39925;DHT22;25592;49.986;11.618;2023-07-13T12:34:57;29.00;46.60
39925;DHT22;25592;49.986;11.618;2023-07-13T12:37:48;29.70;46.50
39925;DHT22;25592;49.986;11.618;2023-07-13T12:40:34;30.40;45.60
39925;DHT22;25592;49.986;11.618;2023-07-13T12:43:22;30.40;45.30
39925;DHT22;25592;49.986;11.618;2023-07-13T12:46:19;30.20;45.50
39925;DHT22;25592;49.986;11.618;2023-07-13T12:49:07;29.70;46.10
39925;DHT22;25592;49.986;11.618;2023-07-13T12:52:10;29.10;45.90
39925;DHT22;25592;49.986;11.618;2023-07-13T12:55:03;28.60;47.00
39925;DHT22;25592;49.986;11.618;2023-07-13T12:57:54;29.10;47.00
39925;DHT22;25592;49.986;11.618;2023-07-13T13:00:40;29.40;45.30
39925;DHT22;25592;49.986;11.618;2023-07-13T13:03:29;29.30;46.00
39925;DHT22;25592;49.986;11.618;2023-07-13T13:09:11;28.60;46.10
39925;DHT22;25592;49.986;11.618;2023-07-13T13:11:57;28.80;45.70
39925;DHT22;25592;49.986;11.618;2023-07-13T13:14:43;29.10;46.90
39925;DHT22;25592;49.986;11.618;2023-07-13T13:17:30;29.10;46.00
39925;DHT22;25592;49.986;11.618;2023-07-13T13:20:20;29.30;46.10
39925;DHT22;25592;49.986;11.618;2023-07-13T13:23:15;29.50;45.70
39925;DHT22;25592;49.986;11.618;2023-07-13T13:26:04;29.20;45.80
39925;DHT22;25592;49.986;11.618;2023-07-13T13:28:50;29.10;46.50
39925;DHT22;25592;49.986;11.618;2023-07-13T13:31:36;29.30;47.00
39925;DHT22;25592;49.986;11.618;2023-07-13T13:34:23;29.40;46.50
39925;DHT22;25592;49.986;11.618;2023-07-13T13:37:22;29.50;46.20
39925;DHT22;25592;49.986;11.618;2023-07-13T13:40:14;29.20;45.40
39925;DHT22;25592;49.986;11.618;2023-07-13T13:43:01;29.20;45.70
39925;DHT22;25592;49.986;11.618;2023-07-13T13:45:47;28.90;45.50
39925;DHT22;25592;49.986;11.618;2023-07-13T13:48:34;28.60;46.60
39925;DHT22;25592;49.986;11.618;2023-07-13T13:51:22;29.00;46.80
39925;DHT22;25592;49.986;11.618;2023-07-13T13:54:13;29.30;46.30
39925;DHT22;25592;49.986;11.618;2023-07-13T13:56:59;29.50;45.90
39925;DHT22;25592;49.986;11.618;2023-07-13T13:59:44;29.10;45.70
39925;DHT22;25592;49.986;11.618;2023-07-13T14:02:31;29.10;46.30
39925;DHT22;25592;49.986;11.618;2023-07-13T14:05:21;29.10;46.50
39925;DHT22;25592;49.986;11.618;2023-07-13T14:08:18;29.00;47.40
39925;DHT22;25592;49.986;11.618;2023-07-13T14:11:05;29.10;47.50
39925;DHT22;25592;49.986;11.618;2023-07-13T14:13:58;28.90;47.00
39925;DHT22;25592;49.986;11.618;2023-07-13T14:16:44;29.10;46.80
39925;DHT22;25592;49.986;11.618;2023-07-13T14:19:32;28.90;46.80
39925;DHT22;25592;49.986;11.618;2023-07-13T14:22:17;28.90;47.60
39925;DHT22;25592;49.986;11.618;2023-07-13T14:25:04;29.10;47.40
39925;DHT22;25592;49.986;11.618;2023-07-13T14:27:53;29.30;47.00
39925;DHT22;25592;49.986;11.618;2023-07-13T14:30:41;29.40;47.10
39925;DHT22;25592;49.986;11.618;2023-07-13T14:33:27;29.40;46.80
39925;DHT22;25592;49.986;11.618;2023-07-13T14:36:34;29.40;47.90
39925;DHT22;25592;49.986;11.618;2023-07-13T14:39:24;29.30;46.90
39925;DHT22;25592;49.986;11.618;2023-07-13T14:42:10;29.10;47.50
39925;DHT22;25592;49.986;11.618;2023-07-13T14:44:56;28.90;47.90
39925;DHT22;25592;49.986;11.618;2023-07-13T14:47:43;28.40;47.50
39925;DHT22;25592;49.986;11.618;2023-07-13T14:50:32;28.80;48.30
39925;DHT22;25592;49.986;11.618;2023-07-13T14:53:18;28.70;47.80
39925;DHT22;25592;49.986;11.618;2023-07-13T14:56:10;28.80;48.00
39925;DHT22;25592;49.986;11.618;2023-07-13T14:58:56;29.10;47.90
39925;DHT22;25592;49.986;11.618;2023-07-13T15:01:42;29.20;47.70
39925;DHT22;25592;49.986;11.618;2023-07-13T15:04:27;29.00;47.70
39925;DHT22;25592;49.986;11.618;2023-07-13T15:07:13;28.60;48.50
39925;DHT22;25592;49.986;11.618;2023-07-13T15:10:01;28.50;48.50
39925;DHT22;25592;49.986;11.618;2023-07-13T15:12:46;28.90;48.70
39925;DHT22;25592;49.986;11.618;2023-07-13T15:15:33;28.80;48.40
39925;DHT22;25592;49.986;11.618;2023-07-13T15:18:22;28.60;48.60
39925;DHT22;25592;49.986;11.618;2023-07-13T15:21:11;28.00;48.60
39925;DHT22;25592;49.986;11.618;2023-07-13T15:23:59;27.90;48.60
39925;DHT22;25592;49.986;11.618;2023-07-13T15:26:45;27.90;48.60
39925;DHT22;25592;49.986;11.618;2023-07-13T15:29:33;28.20;48.90
39925;DHT22;25592;49.986;11.618;2023-07-13T15:32:19;28.40;49.10
39925;DHT22;25592;49.986;11.618;2023-07-13T15:35:09;28.80;48.50
39925;DHT22;25592;49.986;11.618;2023-07-13T15:37:57;29.10;48.20
39925;DHT22;25592;49.986;11.618;2023-07-13T15:40:43;29.20;47.90
39925;DHT22;25592;49.986;11.618;2023-07-13T15:43:32;29.20;47.70
39925;DHT22;25592;49.986;11.618;2023-07-13T15:46:22;29.20;48.10
39925;DHT22;25592;49.986;11.618;2023-07-13T15:49:09;28.90;48.00
39925;DHT22;25592;49.986;11.618;2023-07-13T15:51:55;28.60;47.90
39925;DHT22;25592;49.986;11.618;2023-07-13T15:54:40;28.20;48.20
39925;DHT22;25592;49.986;11.618;2023-07-13T15:57:26;27.80;48.80
39925;DHT22;25592;49.986;11.618;2023-07-13T16:00:25;28.00;49.00
39925;DHT22;25592;49.986;11.618;2023-07-13T16:03:11;28.50;48.90
39925;DHT22;25592;49.986;11.618;2023-07-13T16:05:57;28.70;48.50
39925;DHT22;25592;49.986;11.618;2023-07-13T16:08:43;28.60;48.20
39925;DHT22;25592;49.986;11.618;2023-07-13T16:11:39;28.60;48.10
39925;DHT22;25592;49.986;11.618;2023-07-13T16:14:25;28.50;48.70
39925;DHT22;25592;49.986;11.618;2023-07-13T16:17:13;28.30;47.90
39925;DHT22;25592;49.986;11.618;2023-07-13T16:19:59;27.90;48.10
39925;DHT22;25592;49.986;11.618;2023-07-13T16:22:46;27.90;48.60
39925;DHT22;25592;49.986;11.618;2023-07-13T16:25:33;28.10;48.90
39925;DHT22;25592;49.986;11.618;2023-07-13T16:28:19;28.30;48.90
39925;DHT22;25592;49.986;11.618;2023-07-13T16:31:04;28.20;48.50
39925;DHT22;25592;49.986;11.618;2023-07-13T16:33:53;28.40;47.90
39925;DHT22;25592;49.986;11.618;2023-07-13T16:36:39;28.00;47.80
39925;DHT22;25592;49.986;11.618;2023-07-13T16:39:26;27.90;48.30
39925;DHT22;25592;49.986;11.618;2023-07-13T16:42:12;27.90;48.60
39925;DHT22;25592;49.986;11.618;2023-07-13T16:44:57;27.80;48.60
39925;DHT22;25592;49.986;11.618;2023-07-13T16:47:43;27.60;49.20
39925;DHT22;25592;49.986;11.618;2023-07-13T16:50:33;27.70;48.70
39925;DHT22;25592;49.986;11.618;2023-07-13T16:53:22;27.60;48.90
39925;DHT22;25592;49.986;11.618;2023-07-13T16:56:14;27.70;49.40
39925;DHT22;25592;49.986;11.618;2023-07-13T16:59:01;27.70;48.50
39925;DHT22;25592;49.986;11.618;2023-07-13T17:01:49;27.60;49.00
39925;DHT22;25592;49.986;11.618;2023-07-13T17:04:34;27.50;48.80
39925;DHT22;25592;49.986;11.618;2023-07-13T17:07:20;27.50;48.80
39925;DHT22;25592;49.986;11.618;2023-07-13T17:10:16;27.10;49.10
39925;DHT22;25592;49.986;11.618;2023-07-13T17:13:04;27.50;49.70
39925;DHT22;25592;49.986;11.618;2023-07-13T17:15:51;27.50;50.00
39925;DHT22;25592;49.986;11.618;2023-07-13T17:18:44;27.70;48.70
39925;DHT22;25592;49.986;11.618;2023-07-13T17:21:29;27.70;49.70
39925;DHT22;25592;49.986;11.618;2023-07-13T17:24:26;27.80;49.10
39925;DHT22;25592;49.986;11.618;2023-07-13T17:27:12;27.50;49.50
39925;DHT22;25592;49.986;11.618;2023-07-13T17:29:57;27.20;49.70
39925;DHT22;25592;49.986;11.618;2023-07-13T17:32:45;27.40;49.50
39925;DHT22;25592;49.986;11.618;2023-07-13T17:35:33;27.10;49.20
39925;DHT22;25592;49.986;11.618;2023-07-13T17:38:19;27.00;50.10
39925;DHT22;25592;49.986;11.618;2023-07-13T17:41:06;26.90;50.30
39925;DHT22;25592;49.986;11.618;2023-07-13T17:43:53;26.90;50.50